»·PEaware :: SWA20 KLAS-KSLC

SWA20 :: KLAS-KSLC

FLIGHT INFORMATION

Flight Status: Arrived
Operator:
Southwest Airlines
More flights by this operator :: More flights under this callsign
Pilot: Matthew M. (5545)
Aircraft: BOEING 737-800
(B738)
More flights by this aircraft type
Origin: KLAS McCarran Intl
United States
Destination: KSLC Salt Lake City Intl
United States
More flights between these airports :: More routes between these airports
Route: STAAV8 MLF DELTA5
File this flight plan on PilotEdge
Remarks:
Altitude:
(Current/Filed)
33,000ft
Speed:
(Current/Filed)
480kts
Departed: 01-Oct-18 06:59 PM
Arrived: 01-Oct-18 07:57 PM
Distance/Time
Traveled:
319nm/0:58
Distance/Time
To Go:
Arrived

Flight Plot

Page will automatically refresh every two minutes.

Flight plan parsing failed; only flown route is shown


Map Options




Map Legend


Flown Route
Filed Route
Departure Airport
Arrival Airport
Navaid (VOR, NDB)
Fix

Horizontal Profiles

Position Reports

Time Latitude Longitude Heading Altitude Ground
Speed
01-Oct-18 18:43 36.080552 -115.145664 270 2122ft 0kts
01-Oct-18 18:44 36.080552 -115.145664 270 2122ft 0kts
01-Oct-18 18:45 36.080552 -115.145664 270 2122ft 0kts
01-Oct-18 18:46 36.080552 -115.145664 270 2122ft 0kts
01-Oct-18 18:47 36.080552 -115.145664 270 2122ft 0kts
01-Oct-18 18:48 36.080552 -115.145664 270 2122ft 0kts
01-Oct-18 18:49 36.080552 -115.145664 270 2122ft 0kts
01-Oct-18 18:50 36.080592 -115.145154 268 2122ft 2kts
01-Oct-18 18:51 36.080806 -115.144836 179 2122ft 0kts
01-Oct-18 18:52 36.080807 -115.144836 179 2122ft 0kts
01-Oct-18 18:53 36.080807 -115.144836 179 2122ft 0kts
01-Oct-18 18:54 36.078723 -115.144757 160 2122ft 18kts
01-Oct-18 18:55 36.078268 -115.137500 90 2121ft 24kts
01-Oct-18 18:56 36.078270 -115.128677 90 2121ft 26kts
01-Oct-18 18:57 36.077518 -115.121572 135 2122ft 8kts
01-Oct-18 18:58 36.077503 -115.121554 135 2122ft 0kts
01-Oct-18 18:59 36.077503 -115.121554 135 2122ft 0kts
01-Oct-18 19:00 36.076426 -115.122149 269 2122ft 0kts
01-Oct-18 19:01 36.076601 -115.159891 265 2842ft 188kts
01-Oct-18 19:02 36.077335 -115.236178 278 5547ft 249kts
01-Oct-18 19:03 36.121233 -115.294912 343 8939ft 269kts
01-Oct-18 19:04 36.178899 -115.256551 58 11807ft 284kts
01-Oct-18 19:05 36.203669 -115.158035 88 13645ft 335kts
01-Oct-18 19:06 36.198622 -115.053021 95 16412ft 346kts
01-Oct-18 19:07 36.198961 -114.934378 92 19144ft 361kts
01-Oct-18 19:08 36.209531 -114.813484 71 21537ft 385kts
01-Oct-18 19:09 36.276955 -114.709098 40 22921ft 407kts
01-Oct-18 19:10 36.365844 -114.624182 39 22927ft 408kts
01-Oct-18 19:11 36.450215 -114.551149 33 24691ft 424kts
01-Oct-18 19:12 36.530536 -114.488239 33 26234ft 436kts
01-Oct-18 19:13 36.624526 -114.414446 33 27872ft 450kts
01-Oct-18 19:14 36.723216 -114.336727 33 29481ft 461kts
01-Oct-18 19:15 36.828493 -114.253731 33 31435ft 461kts
01-Oct-18 19:16 36.936147 -114.168593 33 32980ft 465kts
01-Oct-18 19:17 37.049277 -114.078655 32 32993ft 500kts
01-Oct-18 19:18 37.166562 -113.985084 30 32980ft 504kts
01-Oct-18 19:19 37.284517 -113.890720 30 32982ft 505kts
01-Oct-18 19:20 37.402691 -113.795785 30 32980ft 505kts
01-Oct-18 19:21 37.520345 -113.700907 30 32995ft 504kts
01-Oct-18 19:22 37.638045 -113.605594 30 33082ft 505kts
01-Oct-18 19:23 37.755954 -113.509765 30 33131ft 504kts
01-Oct-18 19:24 37.873373 -113.413974 30 33137ft 504kts
01-Oct-18 19:25 37.989103 -113.319240 31 33132ft 505kts
01-Oct-18 19:26 38.104866 -113.224280 31 33118ft 505kts
01-Oct-18 19:27 38.221389 -113.128287 31 33071ft 505kts
01-Oct-18 19:28 38.338664 -113.031232 31 33071ft 505kts
01-Oct-18 19:29 38.465472 -112.957014 19 32527ft 501kts
01-Oct-18 19:30 38.593506 -112.888821 20 31248ft 503kts
01-Oct-18 19:31 38.722170 -112.819855 21 29974ft 504kts
01-Oct-18 19:32 38.850975 -112.750551 21 28723ft 506kts
01-Oct-18 19:33 38.980848 -112.680282 20 27470ft 508kts
01-Oct-18 19:34 39.104139 -112.613336 19 26175ft 483kts
01-Oct-18 19:35 39.194487 -112.564198 19 25139ft 475kts
01-Oct-18 19:36 39.314268 -112.499671 14 23907ft 464kts
01-Oct-18 19:37 39.435282 -112.461764 11 22685ft 426kts
01-Oct-18 19:38 39.543798 -112.425443 10 21634ft 392kts
01-Oct-18 19:39 39.648465 -112.390483 11 20658ft 386kts
01-Oct-18 19:40 39.751179 -112.356095 11 19687ft 380kts
01-Oct-18 19:41 39.850380 -112.322869 12 18715ft 374kts
01-Oct-18 19:42 39.950156 -112.289349 12 17719ft 367kts
01-Oct-18 19:43 40.047378 -112.256573 12 17028ft 360kts
01-Oct-18 19:44 40.144673 -112.223685 12 17016ft 375kts
01-Oct-18 19:45 40.245341 -112.189514 12 17016ft 375kts
01-Oct-18 19:46 40.343458 -112.156114 13 16178ft 373kts
01-Oct-18 19:47 40.440659 -112.122934 13 14381ft 358kts
01-Oct-18 19:48 40.530167 -112.092407 13 13008ft 337kts
01-Oct-18 19:49 40.616567 -112.078321 359 11683ft 308kts
01-Oct-18 19:50 40.693635 -112.085074 353 11076ft 267kts
01-Oct-18 19:51 40.767242 -112.092762 355 10271ft 279kts
01-Oct-18 19:52 40.843555 -112.099819 355 8924ft 258kts
01-Oct-18 19:53 40.911168 -112.100137 27 7466ft 235kts
01-Oct-18 19:54 40.926073 -112.033008 122 6056ft 205kts
01-Oct-18 19:55 40.898089 -111.983375 160 6007ft 155kts
01-Oct-18 19:56 40.855413 -111.982565 174 5127ft 156kts
01-Oct-18 19:57 40.814171 -111.977700 173 4392ft 159kts
01-Oct-18 19:58 40.787615 -111.974621 176 4235ft 44kts
01-Oct-18 19:59 40.784984 -111.977170 287 4235ft 5kts
01-Oct-18 20:00 40.785046 -111.977434 286 4235ft 0kts
01-Oct-18 20:01 40.785046 -111.977434 286 4235ft 0kts
01-Oct-18 20:02 40.785046 -111.977434 286 4235ft 0kts
01-Oct-18 20:03 40.785046 -111.977434 286 4235ft 0kts
01-Oct-18 20:04 40.785046 -111.977434 286 4235ft 0kts
01-Oct-18 20:05 40.785046 -111.977434 286 4235ft 0kts
01-Oct-18 20:06 40.785046 -111.977434 286 4235ft 0kts
01-Oct-18 20:07 40.785046 -111.977434 286 4235ft 0kts
01-Oct-18 20:08 40.785046 -111.977434 286 4235ft 0kts
01-Oct-18 20:09 40.785046 -111.977434 286 4235ft 0kts
01-Oct-18 20:10 40.785046 -111.977434 286 4235ft 0kts

Navigation Log

Ident Type
Flight plan parsing failed, navigation log unavailable